sensor_id;sensor_type;location;lat;lon;timestamp;P1;durP1;ratioP1;P2;durP2;ratioP2
71042;SDS011;58696;52.134;5.500;2023-07-13T00:00:18;8.07;;;2.28;;
71042;SDS011;58696;52.134;5.500;2023-07-13T00:02:45;9.73;;;1.80;;
71042;SDS011;58696;52.134;5.500;2023-07-13T00:05:11;8.70;;;1.60;;
71042;SDS011;58696;52.134;5.500;2023-07-13T00:07:38;11.35;;;1.88;;
71042;SDS011;58696;52.134;5.500;2023-07-13T00:10:04;7.38;;;1.92;;
71042;SDS011;58696;52.134;5.500;2023-07-13T00:12:34;8.23;;;1.80;;
71042;SDS011;58696;52.134;5.500;2023-07-13T00:15:05;8.23;;;1.80;;
71042;SDS011;58696;52.134;5.500;2023-07-13T00:17:37;6.57;;;1.80;;
71042;SDS011;58696;52.134;5.500;2023-07-13T00:20:07;4.60;;;1.40;;
71042;SDS011;58696;52.134;5.500;2023-07-13T00:22:37;6.85;;;2.00;;
71042;SDS011;58696;52.134;5.500;2023-07-13T00:25:04;6.82;;;1.40;;
71042;SDS011;58696;52.134;5.500;2023-07-13T00:27:35;7.82;;;1.77;;
71042;SDS011;58696;52.134;5.500;2023-07-13T00:30:01;14.85;;;2.00;;
71042;SDS011;58696;52.134;5.500;2023-07-13T00:32:29;7.43;;;1.92;;
71042;SDS011;58696;52.134;5.500;2023-07-13T00:34:57;8.77;;;2.05;;
71042;SDS011;58696;52.134;5.500;2023-07-13T00:37:29;5.85;;;1.70;;
71042;SDS011;58696;52.134;5.500;2023-07-13T00:39:55;6.90;;;2.13;;
71042;SDS011;58696;52.134;5.500;2023-07-13T00:42:26;9.07;;;1.67;;
71042;SDS011;58696;52.134;5.500;2023-07-13T00:47:31;7.47;;;1.60;;
71042;SDS011;58696;52.134;5.500;2023-07-13T00:50:00;6.57;;;1.95;;
71042;SDS011;58696;52.134;5.500;2023-07-13T00:52:29;6.88;;;1.80;;
71042;SDS011;58696;52.134;5.500;2023-07-13T00:54:56;4.83;;;1.60;;
71042;SDS011;58696;52.134;5.500;2023-07-13T00:57:23;10.30;;;1.75;;
71042;SDS011;58696;52.134;5.500;2023-07-13T00:59:52;4.60;;;1.40;;
71042;SDS011;58696;52.134;5.500;2023-07-13T01:02:24;9.05;;;2.03;;
71042;SDS011;58696;52.134;5.500;2023-07-13T01:04:52;5.57;;;1.83;;
71042;SDS011;58696;52.134;5.500;2023-07-13T01:07:18;4.70;;;1.45;;
71042;SDS011;58696;52.134;5.500;2023-07-13T01:09:45;8.18;;;1.70;;
71042;SDS011;58696;52.134;5.500;2023-07-13T01:12:12;9.75;;;1.50;;
71042;SDS011;58696;52.134;5.500;2023-07-13T01:14:43;3.65;;;1.48;;
71042;SDS011;58696;52.134;5.500;2023-07-13T01:17:12;4.53;;;1.60;;
71042;SDS011;58696;52.134;5.500;2023-07-13T01:19:40;10.70;;;1.73;;
71042;SDS011;58696;52.134;5.500;2023-07-13T01:22:10;5.90;;;1.80;;
71042;SDS011;58696;52.134;5.500;2023-07-13T01:24:42;8.00;;;1.95;;
71042;SDS011;58696;52.134;5.500;2023-07-13T01:27:12;7.65;;;1.70;;
71042;SDS011;58696;52.134;5.500;2023-07-13T01:29:46;3.50;;;1.80;;
71042;SDS011;58696;52.134;5.500;2023-07-13T01:32:15;4.35;;;1.42;;
71042;SDS011;58696;52.134;5.500;2023-07-13T01:34:51;4.80;;;1.80;;
71042;SDS011;58696;52.134;5.500;2023-07-13T01:37:23;6.45;;;1.85;;
71042;SDS011;58696;52.134;5.500;2023-07-13T01:39:52;7.40;;;1.45;;
71042;SDS011;58696;52.134;5.500;2023-07-13T01:42:18;7.43;;;1.27;;
71042;SDS011;58696;52.134;5.500;2023-07-13T01:44:45;7.13;;;1.77;;
71042;SDS011;58696;52.134;5.500;2023-07-13T01:47:16;8.77;;;1.90;;
71042;SDS011;58696;52.134;5.500;2023-07-13T01:49:45;4.53;;;1.55;;
71042;SDS011;58696;52.134;5.500;2023-07-13T01:52:13;6.65;;;1.38;;
71042;SDS011;58696;52.134;5.500;2023-07-13T01:54:42;4.25;;;1.50;;
71042;SDS011;58696;52.134;5.500;2023-07-13T01:57:11;8.27;;;2.25;;
71042;SDS011;58696;52.134;5.500;2023-07-13T01:59:38;6.15;;;1.70;;
71042;SDS011;58696;52.134;5.500;2023-07-13T02:02:06;5.63;;;1.75;;
71042;SDS011;58696;52.134;5.500;2023-07-13T02:04:36;7.13;;;2.22;;
71042;SDS011;58696;52.134;5.500;2023-07-13T02:07:02;5.72;;;1.98;;
71042;SDS011;58696;52.134;5.500;2023-07-13T02:09:29;3.40;;;1.65;;
71042;SDS011;58696;52.134;5.500;2023-07-13T02:11:55;4.10;;;1.42;;
71042;SDS011;58696;52.134;5.500;2023-07-13T02:14:22;6.40;;;1.83;;
71042;SDS011;58696;52.134;5.500;2023-07-13T02:16:49;8.10;;;2.00;;
71042;SDS011;58696;52.134;5.500;2023-07-13T02:19:15;4.25;;;1.63;;
71042;SDS011;58696;52.134;5.500;2023-07-13T02:21:42;6.38;;;2.20;;
71042;SDS011;58696;52.134;5.500;2023-07-13T02:24:09;10.57;;;2.40;;
71042;SDS011;58696;52.134;5.500;2023-07-13T02:26:43;9.48;;;2.47;;
71042;SDS011;58696;52.134;5.500;2023-07-13T02:29:10;4.90;;;1.90;;
71042;SDS011;58696;52.134;5.500;2023-07-13T02:31:37;4.40;;;1.73;;
71042;SDS011;58696;52.134;5.500;2023-07-13T02:34:06;5.25;;;1.92;;
71042;SDS011;58696;52.134;5.500;2023-07-13T02:36:33;4.15;;;1.80;;
71042;SDS011;58696;52.134;5.500;2023-07-13T02:39:00;7.15;;;2.22;;
71042;SDS011;58696;52.134;5.500;2023-07-13T02:41:28;8.45;;;2.20;;
71042;SDS011;58696;52.134;5.500;2023-07-13T02:44:01;7.10;;;1.67;;
71042;SDS011;58696;52.134;5.500;2023-07-13T02:46:32;8.73;;;2.10;;
71042;SDS011;58696;52.134;5.500;2023-07-13T02:49:03;10.57;;;2.00;;
71042;SDS011;58696;52.134;5.500;2023-07-13T02:51:30;7.75;;;2.15;;
71042;SDS011;58696;52.134;5.500;2023-07-13T02:54:03;4.38;;;1.73;;
71042;SDS011;58696;52.134;5.500;2023-07-13T02:56:31;6.60;;;2.03;;
71042;SDS011;58696;52.134;5.500;2023-07-13T02:59:00;5.30;;;2.10;;
71042;SDS011;58696;52.134;5.500;2023-07-13T03:01:27;6.22;;;2.08;;
71042;SDS011;58696;52.134;5.500;2023-07-13T03:03:54;11.63;;;2.08;;
71042;SDS011;58696;52.134;5.500;2023-07-13T03:06:20;4.85;;;2.03;;
71042;SDS011;58696;52.134;5.500;2023-07-13T03:08:47;8.07;;;2.03;;
71042;SDS011;58696;52.134;5.500;2023-07-13T03:11:18;3.72;;;1.90;;
71042;SDS011;58696;52.134;5.500;2023-07-13T03:13:48;7.88;;;2.80;;
71042;SDS011;58696;52.134;5.500;2023-07-13T03:16:15;9.70;;;2.30;;
71042;SDS011;58696;52.134;5.500;2023-07-13T03:18:45;5.90;;;2.08;;
71042;SDS011;58696;52.134;5.500;2023-07-13T03:21:12;6.07;;;2.03;;
71042;SDS011;58696;52.134;5.500;2023-07-13T03:23:39;8.20;;;2.15;;
71042;SDS011;58696;52.134;5.500;2023-07-13T03:26:13;10.30;;;2.33;;
71042;SDS011;58696;52.134;5.500;2023-07-13T03:28:45;6.82;;;2.22;;
71042;SDS011;58696;52.134;5.500;2023-07-13T03:31:16;12.18;;;2.40;;
71042;SDS011;58696;52.134;5.500;2023-07-13T03:33:47;5.95;;;2.17;;
71042;SDS011;58696;52.134;5.500;2023-07-13T03:36:21;9.10;;;2.63;;
71042;SDS011;58696;52.134;5.500;2023-07-13T03:38:52;9.40;;;2.70;;
71042;SDS011;58696;52.134;5.500;2023-07-13T03:41:21;8.35;;;2.10;;
71042;SDS011;58696;52.134;5.500;2023-07-13T03:43:50;8.25;;;2.08;;
71042;SDS011;58696;52.134;5.500;2023-07-13T03:46:18;8.27;;;2.53;;
71042;SDS011;58696;52.134;5.500;2023-07-13T03:48:46;12.02;;;2.67;;
71042;SDS011;58696;52.134;5.500;2023-07-13T03:51:14;11.80;;;3.15;;
71042;SDS011;58696;52.134;5.500;2023-07-13T03:53:43;10.52;;;2.78;;
71042;SDS011;58696;52.134;5.500;2023-07-13T03:56:14;9.70;;;2.50;;
71042;SDS011;58696;52.134;5.500;2023-07-13T03:58:45;9.60;;;2.70;;
71042;SDS011;58696;52.134;5.500;2023-07-13T04:01:16;8.43;;;2.75;;
71042;SDS011;58696;52.134;5.500;2023-07-13T04:03:48;8.02;;;2.40;;
71042;SDS011;58696;52.134;5.500;2023-07-13T04:06:16;10.23;;;2.78;;
71042;SDS011;58696;52.134;5.500;2023-07-13T04:08:51;5.00;;;2.28;;
71042;SDS011;58696;52.134;5.500;2023-07-13T04:11:19;8.23;;;3.17;;
71042;SDS011;58696;52.134;5.500;2023-07-13T04:13:50;10.13;;;2.58;;
71042;SDS011;58696;52.134;5.500;2023-07-13T04:16:21;9.95;;;2.60;;
71042;SDS011;58696;52.134;5.500;2023-07-13T04:18:51;10.57;;;2.78;;
71042;SDS011;58696;52.134;5.500;2023-07-13T04:21:21;7.72;;;2.72;;
71042;SDS011;58696;52.134;5.500;2023-07-13T04:23:51;14.23;;;2.88;;
71042;SDS011;58696;52.134;5.500;2023-07-13T04:26:22;13.55;;;3.03;;
71042;SDS011;58696;52.134;5.500;2023-07-13T04:28:51;10.55;;;2.90;;
71042;SDS011;58696;52.134;5.500;2023-07-13T04:31:20;11.10;;;2.80;;
71042;SDS011;58696;52.134;5.500;2023-07-13T04:33:48;6.85;;;2.58;;
71042;SDS011;58696;52.134;5.500;2023-07-13T04:36:20;16.83;;;2.80;;
71042;SDS011;58696;52.134;5.500;2023-07-13T04:38:47;7.50;;;2.70;;
71042;SDS011;58696;52.134;5.500;2023-07-13T04:41:15;5.85;;;2.75;;
71042;SDS011;58696;52.134;5.500;2023-07-13T04:43:45;8.68;;;2.90;;
71042;SDS011;58696;52.134;5.500;2023-07-13T04:46:12;7.32;;;2.60;;
71042;SDS011;58696;52.134;5.500;2023-07-13T04:48:44;12.27;;;2.97;;
71042;SDS011;58696;52.134;5.500;2023-07-13T04:51:11;8.77;;;2.65;;
71042;SDS011;58696;52.134;5.500;2023-07-13T04:53:40;9.57;;;2.88;;
71042;SDS011;58696;52.134;5.500;2023-07-13T04:56:06;9.80;;;2.80;;
71042;SDS011;58696;52.134;5.500;2023-07-13T04:58:33;8.23;;;2.85;;
71042;SDS011;58696;52.134;5.500;2023-07-13T05:01:05;12.48;;;3.10;;
71042;SDS011;58696;52.134;5.500;2023-07-13T05:03:32;12.05;;;3.47;;
71042;SDS011;58696;52.134;5.500;2023-07-13T05:06:07;13.93;;;3.35;;
71042;SDS011;58696;52.134;5.500;2023-07-13T05:08:40;11.90;;;3.10;;
71042;SDS011;58696;52.134;5.500;2023-07-13T05:11:08;10.40;;;3.17;;
71042;SDS011;58696;52.134;5.500;2023-07-13T05:13:35;14.80;;;3.43;;
71042;SDS011;58696;52.134;5.500;2023-07-13T05:16:05;12.88;;;3.72;;
71042;SDS011;58696;52.134;5.500;2023-07-13T05:18:34;16.30;;;4.25;;
71042;SDS011;58696;52.134;5.500;2023-07-13T05:21:08;11.05;;;3.33;;
71042;SDS011;58696;52.134;5.500;2023-07-13T05:23:39;11.45;;;3.50;;
71042;SDS011;58696;52.134;5.500;2023-07-13T05:26:08;14.50;;;4.50;;
71042;SDS011;58696;52.134;5.500;2023-07-13T05:28:35;13.70;;;4.18;;
71042;SDS011;58696;52.134;5.500;2023-07-13T05:31:02;14.00;;;3.78;;
71042;SDS011;58696;52.134;5.500;2023-07-13T05:33:29;14.35;;;3.65;;
71042;SDS011;58696;52.134;5.500;2023-07-13T05:35:56;8.85;;;3.95;;
71042;SDS011;58696;52.134;5.500;2023-07-13T05:38:23;11.70;;;3.38;;
71042;SDS011;58696;52.134;5.500;2023-07-13T05:40:50;16.13;;;3.85;;
71042;SDS011;58696;52.134;5.500;2023-07-13T05:43:20;15.65;;;4.00;;
71042;SDS011;58696;52.134;5.500;2023-07-13T05:45:48;11.93;;;3.78;;
71042;SDS011;58696;52.134;5.500;2023-07-13T05:48:18;17.23;;;4.20;;
71042;SDS011;58696;52.134;5.500;2023-07-13T05:50:47;12.68;;;3.95;;
71042;SDS011;58696;52.134;5.500;2023-07-13T05:53:14;12.50;;;4.40;;
71042;SDS011;58696;52.134;5.500;2023-07-13T05:55:42;15.40;;;5.43;;
71042;SDS011;58696;52.134;5.500;2023-07-13T06:00:36;17.73;;;5.00;;
71042;SDS011;58696;52.134;5.500;2023-07-13T06:03:05;17.30;;;5.80;;
71042;SDS011;58696;52.134;5.500;2023-07-13T06:05:35;14.00;;;5.13;;
71042;SDS011;58696;52.134;5.500;2023-07-13T06:08:04;16.73;;;5.30;;
71042;SDS011;58696;52.134;5.500;2023-07-13T06:10:37;14.63;;;5.40;;
71042;SDS011;58696;52.134;5.500;2023-07-13T06:13:08;20.23;;;6.43;;
71042;SDS011;58696;52.134;5.500;2023-07-13T06:15:40;14.48;;;5.88;;
71042;SDS011;58696;52.134;5.500;2023-07-13T06:18:06;16.00;;;5.60;;
71042;SDS011;58696;52.134;5.500;2023-07-13T06:20:33;19.35;;;5.90;;
71042;SDS011;58696;52.134;5.500;2023-07-13T06:23:02;16.65;;;5.22;;
71042;SDS011;58696;52.134;5.500;2023-07-13T06:25:29;13.10;;;5.60;;
71042;SDS011;58696;52.134;5.500;2023-07-13T06:27:58;17.55;;;5.35;;
71042;SDS011;58696;52.134;5.500;2023-07-13T06:30:27;13.77;;;5.43;;
71042;SDS011;58696;52.134;5.500;2023-07-13T06:32:54;22.15;;;6.22;;
71042;SDS011;58696;52.134;5.500;2023-07-13T06:35:23;15.63;;;5.50;;
71042;SDS011;58696;52.134;5.500;2023-07-13T06:37:52;14.07;;;5.75;;
71042;SDS011;58696;52.134;5.500;2023-07-13T06:40:18;16.10;;;6.75;;
71042;SDS011;58696;52.134;5.500;2023-07-13T06:42:45;16.08;;;5.93;;
71042;SDS011;58696;52.134;5.500;2023-07-13T06:45:12;18.88;;;6.00;;
71042;SDS011;58696;52.134;5.500;2023-07-13T06:47:41;16.92;;;6.15;;
71042;SDS011;58696;52.134;5.500;2023-07-13T06:50:08;17.60;;;6.00;;
71042;SDS011;58696;52.134;5.500;2023-07-13T06:52:35;14.35;;;5.80;;
71042;SDS011;58696;52.134;5.500;2023-07-13T06:55:01;19.25;;;6.47;;
71042;SDS011;58696;52.134;5.500;2023-07-13T06:57:28;16.48;;;5.88;;
71042;SDS011;58696;52.134;5.500;2023-07-13T06:59:59;17.20;;;6.57;;
71042;SDS011;58696;52.134;5.500;2023-07-13T07:02:26;18.35;;;6.68;;
71042;SDS011;58696;52.134;5.500;2023-07-13T07:04:53;24.48;;;7.22;;
71042;SDS011;58696;52.134;5.500;2023-07-13T07:07:25;24.13;;;6.80;;
71042;SDS011;58696;52.134;5.500;2023-07-13T07:09:52;17.55;;;6.72;;
71042;SDS011;58696;52.134;5.500;2023-07-13T07:12:21;14.93;;;6.38;;
71042;SDS011;58696;52.134;5.500;2023-07-13T07:14:49;13.25;;;6.47;;
71042;SDS011;58696;52.134;5.500;2023-07-13T07:17:18;20.98;;;6.55;;
71042;SDS011;58696;52.134;5.500;2023-07-13T07:19:50;21.25;;;6.28;;
71042;SDS011;58696;52.134;5.500;2023-07-13T07:22:16;13.93;;;5.93;;
71042;SDS011;58696;52.134;5.500;2023-07-13T07:24:48;22.65;;;6.25;;
71042;SDS011;58696;52.134;5.500;2023-07-13T07:27:17;16.85;;;6.72;;
71042;SDS011;58696;52.134;5.500;2023-07-13T07:29:46;15.65;;;5.63;;
71042;SDS011;58696;52.134;5.500;2023-07-13T07:32:33;12.80;;;5.87;;
71042;SDS011;58696;52.134;5.500;2023-07-13T07:35:02;21.45;;;6.40;;
71042;SDS011;58696;52.134;5.500;2023-07-13T07:37:34;15.13;;;7.40;;
71042;SDS011;58696;52.134;5.500;2023-07-13T07:40:07;14.63;;;6.07;;
71042;SDS011;58696;52.134;5.500;2023-07-13T07:42:39;15.48;;;6.60;;
71042;SDS011;58696;52.134;5.500;2023-07-13T07:45:08;18.77;;;6.47;;
71042;SDS011;58696;52.134;5.500;2023-07-13T07:47:37;14.77;;;5.80;;
71042;SDS011;58696;52.134;5.500;2023-07-13T07:50:05;15.48;;;6.75;;
71042;SDS011;58696;52.134;5.500;2023-07-13T07:52:34;20.30;;;7.45;;
71042;SDS011;58696;52.134;5.500;2023-07-13T07:55:03;13.55;;;6.57;;
71042;SDS011;58696;52.134;5.500;2023-07-13T07:57:33;14.40;;;6.45;;
71042;SDS011;58696;52.134;5.500;2023-07-13T08:00:20;17.65;;;6.75;;
71042;SDS011;58696;52.134;5.500;2023-07-13T08:02:50;22.77;;;6.20;;
71042;SDS011;58696;52.134;5.500;2023-07-13T08:05:19;30.13;;;7.13;;
71042;SDS011;58696;52.134;5.500;2023-07-13T08:08:02;23.58;;;7.10;;
71042;SDS011;58696;52.134;5.500;2023-07-13T08:10:29;20.35;;;6.63;;
71042;SDS011;58696;52.134;5.500;2023-07-13T08:12:55;13.05;;;5.95;;
71042;SDS011;58696;52.134;5.500;2023-07-13T08:15:25;17.85;;;5.68;;
71042;SDS011;58696;52.134;5.500;2023-07-13T08:17:54;16.52;;;5.68;;
71042;SDS011;58696;52.134;5.500;2023-07-13T08:20:22;12.80;;;5.90;;
71042;SDS011;58696;52.134;5.500;2023-07-13T08:22:54;9.82;;;5.43;;
71042;SDS011;58696;52.134;5.500;2023-07-13T08:25:23;13.63;;;5.00;;
71042;SDS011;58696;52.134;5.500;2023-07-13T08:27:54;10.93;;;5.35;;
71042;SDS011;58696;52.134;5.500;2023-07-13T08:30:25;10.80;;;5.07;;
71042;SDS011;58696;52.134;5.500;2023-07-13T08:32:57;16.27;;;5.35;;
71042;SDS011;58696;52.134;5.500;2023-07-13T08:35:24;15.70;;;5.55;;
71042;SDS011;58696;52.134;5.500;2023-07-13T08:37:53;13.55;;;4.88;;
71042;SDS011;58696;52.134;5.500;2023-07-13T08:40:23;12.35;;;4.22;;
71042;SDS011;58696;52.134;5.500;2023-07-13T08:48:02;10.70;;;3.90;;
71042;SDS011;58696;52.134;5.500;2023-07-13T08:50:35;9.00;;;3.50;;
71042;SDS011;58696;52.134;5.500;2023-07-13T08:53:39;11.25;;;2.72;;
71042;SDS011;58696;52.134;5.500;2023-07-13T08:56:16;7.75;;;2.38;;
71042;SDS011;58696;52.134;5.500;2023-07-13T08:58:48;5.88;;;2.70;;
71042;SDS011;58696;52.134;5.500;2023-07-13T09:01:22;7.55;;;2.20;;
71042;SDS011;58696;52.134;5.500;2023-07-13T09:07:03;3.90;;;1.70;;
71042;SDS011;58696;52.134;5.500;2023-07-13T09:12:51;3.25;;;1.52;;
71042;SDS011;58696;52.134;5.500;2023-07-13T09:15:24;6.03;;;2.05;;
71042;SDS011;58696;52.134;5.500;2023-07-13T09:17:59;5.30;;;1.90;;
71042;SDS011;58696;52.134;5.500;2023-07-13T09:20:35;4.35;;;1.95;;
71042;SDS011;58696;52.134;5.500;2023-07-13T09:23:23;1.92;;;1.58;;
71042;SDS011;58696;52.134;5.500;2023-07-13T09:25:58;6.22;;;1.58;;
71042;SDS011;58696;52.134;5.500;2023-07-13T09:28:33;5.43;;;2.15;;
71042;SDS011;58696;52.134;5.500;2023-07-13T09:31:06;8.35;;;2.30;;
71042;SDS011;58696;52.134;5.500;2023-07-13T09:33:33;5.70;;;2.00;;
71042;SDS011;58696;52.134;5.500;2023-07-13T09:36:05;4.95;;;2.10;;
71042;SDS011;58696;52.134;5.500;2023-07-13T09:39:41;7.55;;;2.35;;
71042;SDS011;58696;52.134;5.500;2023-07-13T09:42:12;9.68;;;2.33;;
71042;SDS011;58696;52.134;5.500;2023-07-13T09:44:52;8.98;;;2.72;;
71042;SDS011;58696;52.134;5.500;2023-07-13T09:47:27;6.30;;;2.25;;
71042;SDS011;58696;52.134;5.500;2023-07-13T09:50:00;3.47;;;2.13;;
71042;SDS011;58696;52.134;5.500;2023-07-13T09:52:42;3.75;;;1.98;;
71042;SDS011;58696;52.134;5.500;2023-07-13T09:55:45;11.05;;;3.63;;
71042;SDS011;58696;52.134;5.500;2023-07-13T09:58:15;4.18;;;1.83;;
71042;SDS011;58696;52.134;5.500;2023-07-13T10:03:34;9.85;;;2.30;;
71042;SDS011;58696;52.134;5.500;2023-07-13T10:06:14;5.13;;;2.47;;
71042;SDS011;58696;52.134;5.500;2023-07-13T10:08:46;8.30;;;2.65;;
71042;SDS011;58696;52.134;5.500;2023-07-13T10:13:59;5.68;;;1.73;;
71042;SDS011;58696;52.134;5.500;2023-07-13T10:16:30;7.78;;;2.08;;
71042;SDS011;58696;52.134;5.500;2023-07-13T10:19:02;7.63;;;2.38;;
71042;SDS011;58696;52.134;5.500;2023-07-13T10:21:38;6.75;;;2.40;;
71042;SDS011;58696;52.134;5.500;2023-07-13T10:26:45;6.20;;;2.22;;
71042;SDS011;58696;52.134;5.500;2023-07-13T10:29:17;4.07;;;2.40;;
71042;SDS011;58696;52.134;5.500;2023-07-13T10:34:11;5.15;;;2.17;;
71042;SDS011;58696;52.134;5.500;2023-07-13T10:36:43;6.72;;;2.13;;
71042;SDS011;58696;52.134;5.500;2023-07-13T10:39:15;3.50;;;2.30;;
71042;SDS011;58696;52.134;5.500;2023-07-13T10:41:46;3.90;;;2.20;;
71042;SDS011;58696;52.134;5.500;2023-07-13T10:44:25;5.35;;;2.28;;
71042;SDS011;58696;52.134;5.500;2023-07-13T10:47:00;3.17;;;2.25;;
71042;SDS011;58696;52.134;5.500;2023-07-13T10:49:30;5.40;;;2.17;;
71042;SDS011;58696;52.134;5.500;2023-07-13T10:51:58;4.70;;;2.10;;
71042;SDS011;58696;52.134;5.500;2023-07-13T10:59:39;5.25;;;1.58;;
71042;SDS011;58696;52.134;5.500;2023-07-13T11:04:52;3.88;;;1.88;;
71042;SDS011;58696;52.134;5.500;2023-07-13T11:07:21;4.53;;;2.20;;
71042;SDS011;58696;52.134;5.500;2023-07-13T11:10:03;2.35;;;1.77;;
71042;SDS011;58696;52.134;5.500;2023-07-13T11:15:26;5.07;;;2.15;;
71042;SDS011;58696;52.134;5.500;2023-07-13T11:18:02;6.97;;;1.80;;
71042;SDS011;58696;52.134;5.500;2023-07-13T11:20:32;4.85;;;1.67;;
71042;SDS011;58696;52.134;5.500;2023-07-13T11:25:48;8.32;;;2.10;;
71042;SDS011;58696;52.134;5.500;2023-07-13T11:28:25;6.07;;;2.15;;
71042;SDS011;58696;52.134;5.500;2023-07-13T11:31:01;4.95;;;2.30;;
71042;SDS011;58696;52.134;5.500;2023-07-13T11:36:03;4.13;;;2.03;;
71042;SDS011;58696;52.134;5.500;2023-07-13T11:38:45;5.13;;;2.60;;
71042;SDS011;58696;52.134;5.500;2023-07-13T11:44:28;4.50;;;2.25;;
71042;SDS011;58696;52.134;5.500;2023-07-13T11:46:57;4.72;;;2.30;;
71042;SDS011;58696;52.134;5.500;2023-07-13T11:49:29;5.28;;;1.95;;
71042;SDS011;58696;52.134;5.500;2023-07-13T11:51:59;6.28;;;2.45;;
71042;SDS011;58696;52.134;5.500;2023-07-13T11:54:29;4.03;;;1.75;;
71042;SDS011;58696;52.134;5.500;2023-07-13T11:56:59;4.88;;;1.90;;
71042;SDS011;58696;52.134;5.500;2023-07-13T11:59:29;3.55;;;1.90;;
71042;SDS011;58696;52.134;5.500;2023-07-13T12:01:56;4.50;;;2.20;;
71042;SDS011;58696;52.134;5.500;2023-07-13T12:07:07;4.20;;;2.20;;
71042;SDS011;58696;52.134;5.500;2023-07-13T12:09:44;5.03;;;2.00;;
71042;SDS011;58696;52.134;5.500;2023-07-13T12:12:21;3.55;;;2.10;;
71042;SDS011;58696;52.134;5.500;2023-07-13T12:14:52;5.75;;;2.42;;
71042;SDS011;58696;52.134;5.500;2023-07-13T12:17:25;8.85;;;2.90;;
71042;SDS011;58696;52.134;5.500;2023-07-13T12:19:58;3.65;;;2.20;;
71042;SDS011;58696;52.134;5.500;2023-07-13T12:22:27;5.88;;;2.38;;
71042;SDS011;58696;52.134;5.500;2023-07-13T12:24:56;6.17;;;2.30;;
71042;SDS011;58696;52.134;5.500;2023-07-13T12:27:27;6.28;;;2.17;;
71042;SDS011;58696;52.134;5.500;2023-07-13T12:29:59;5.85;;;2.33;;
71042;SDS011;58696;52.134;5.500;2023-07-13T12:32:31;4.40;;;2.70;;
71042;SDS011;58696;52.134;5.500;2023-07-13T12:35:14;8.65;;;2.80;;
71042;SDS011;58696;52.134;5.500;2023-07-13T12:37:48;6.07;;;2.58;;
71042;SDS011;58696;52.134;5.500;2023-07-13T12:40:16;7.72;;;2.88;;
71042;SDS011;58696;52.134;5.500;2023-07-13T12:42:49;5.57;;;2.80;;
71042;SDS011;58696;52.134;5.500;2023-07-13T12:45:24;6.00;;;2.47;;
71042;SDS011;58696;52.134;5.500;2023-07-13T12:47:57;8.15;;;2.75;;
71042;SDS011;58696;52.134;5.500;2023-07-13T12:50:46;6.38;;;2.67;;
71042;SDS011;58696;52.134;5.500;2023-07-13T12:53:20;6.60;;;2.22;;
71042;SDS011;58696;52.134;5.500;2023-07-13T12:55:53;5.57;;;2.72;;
71042;SDS011;58696;52.134;5.500;2023-07-13T12:58:26;4.88;;;2.78;;
71042;SDS011;58696;52.134;5.500;2023-07-13T13:00:55;3.20;;;2.03;;
71042;SDS011;58696;52.134;5.500;2023-07-13T13:03:35;5.47;;;2.28;;
71042;SDS011;58696;52.134;5.500;2023-07-13T13:06:26;5.90;;;2.25;;
71042;SDS011;58696;52.134;5.500;2023-07-13T13:08:56;5.93;;;1.80;;
71042;SDS011;58696;52.134;5.500;2023-07-13T13:11:30;5.15;;;2.22;;
71042;SDS011;58696;52.134;5.500;2023-07-13T13:13:58;5.18;;;2.20;;
71042;SDS011;58696;52.134;5.500;2023-07-13T13:19:27;4.65;;;1.98;;
71042;SDS011;58696;52.134;5.500;2023-07-13T13:21:57;4.80;;;2.47;;
71042;SDS011;58696;52.134;5.500;2023-07-13T13:24:26;3.63;;;2.08;;
71042;SDS011;58696;52.134;5.500;2023-07-13T13:26:54;7.38;;;2.28;;
71042;SDS011;58696;52.134;5.500;2023-07-13T13:29:23;3.22;;;1.80;;
71042;SDS011;58696;52.134;5.500;2023-07-13T13:31:53;5.07;;;2.17;;
71042;SDS011;58696;52.134;5.500;2023-07-13T13:34:23;4.28;;;2.17;;
71042;SDS011;58696;52.134;5.500;2023-07-13T13:36:52;5.78;;;2.15;;
71042;SDS011;58696;52.134;5.500;2023-07-13T13:39:33;4.93;;;2.08;;
71042;SDS011;58696;52.134;5.500;2023-07-13T13:42:02;7.00;;;1.90;;
71042;SDS011;58696;52.134;5.500;2023-07-13T13:44:31;3.58;;;2.00;;
71042;SDS011;58696;52.134;5.500;2023-07-13T13:47:00;6.68;;;2.10;;
71042;SDS011;58696;52.134;5.500;2023-07-13T13:49:29;4.75;;;2.20;;
71042;SDS011;58696;52.134;5.500;2023-07-13T13:51:56;4.15;;;2.33;;
71042;SDS011;58696;52.134;5.500;2023-07-13T13:54:26;6.45;;;2.10;;
71042;SDS011;58696;52.134;5.500;2023-07-13T13:56:53;4.80;;;2.35;;
71042;SDS011;58696;52.134;5.500;2023-07-13T13:59:25;5.15;;;2.15;;
71042;SDS011;58696;52.134;5.500;2023-07-13T14:01:52;5.65;;;1.83;;
71042;SDS011;58696;52.134;5.500;2023-07-13T14:04:20;3.47;;;2.03;;
71042;SDS011;58696;52.134;5.500;2023-07-13T14:06:53;4.65;;;2.70;;
71042;SDS011;58696;52.134;5.500;2023-07-13T14:09:22;3.55;;;2.08;;
71042;SDS011;58696;52.134;5.500;2023-07-13T14:11:49;7.43;;;2.42;;
71042;SDS011;58696;52.134;5.500;2023-07-13T14:14:20;3.85;;;2.17;;
71042;SDS011;58696;52.134;5.500;2023-07-13T14:16:50;5.88;;;2.20;;
71042;SDS011;58696;52.134;5.500;2023-07-13T14:19:25;4.88;;;2.33;;
71042;SDS011;58696;52.134;5.500;2023-07-13T14:21:53;7.40;;;2.30;;
71042;SDS011;58696;52.134;5.500;2023-07-13T14:24:22;6.57;;;2.50;;
71042;SDS011;58696;52.134;5.500;2023-07-13T14:26:49;3.55;;;2.10;;
71042;SDS011;58696;52.134;5.500;2023-07-13T14:29:17;3.97;;;2.07;;
71042;SDS011;58696;52.134;5.500;2023-07-13T14:31:50;3.35;;;2.05;;
71042;SDS011;58696;52.134;5.500;2023-07-13T14:34:17;4.57;;;2.55;;
71042;SDS011;58696;52.134;5.500;2023-07-13T14:36:47;4.85;;;2.28;;
71042;SDS011;58696;52.134;5.500;2023-07-13T14:39:17;3.00;;;1.92;;
71042;SDS011;58696;52.134;5.500;2023-07-13T14:41:45;4.10;;;2.13;;
71042;SDS011;58696;52.134;5.500;2023-07-13T14:46:42;4.00;;;2.20;;
71042;SDS011;58696;52.134;5.500;2023-07-13T14:49:24;4.45;;;2.08;;
71042;SDS011;58696;52.134;5.500;2023-07-13T14:51:56;5.28;;;2.15;;
71042;SDS011;58696;52.134;5.500;2023-07-13T14:54:32;6.63;;;2.33;;
71042;SDS011;58696;52.134;5.500;2023-07-13T14:57:00;5.28;;;2.03;;
71042;SDS011;58696;52.134;5.500;2023-07-13T14:59:27;4.53;;;1.80;;
71042;SDS011;58696;52.134;5.500;2023-07-13T15:01:54;4.00;;;2.10;;
71042;SDS011;58696;52.134;5.500;2023-07-13T15:04:23;3.85;;;1.88;;
71042;SDS011;58696;52.134;5.500;2023-07-13T15:07:00;7.65;;;2.30;;
71042;SDS011;58696;52.134;5.500;2023-07-13T15:09:29;5.13;;;2.00;;
71042;SDS011;58696;52.134;5.500;2023-07-13T15:11:58;5.80;;;2.05;;
71042;SDS011;58696;52.134;5.500;2023-07-13T15:14:27;6.57;;;1.85;;
71042;SDS011;58696;52.134;5.500;2023-07-13T15:16:58;5.95;;;2.08;;
71042;SDS011;58696;52.134;5.500;2023-07-13T15:19:30;4.90;;;1.92;;
71042;SDS011;58696;52.134;5.500;2023-07-13T15:21:59;4.07;;;2.05;;
71042;SDS011;58696;52.134;5.500;2023-07-13T15:24:29;4.07;;;1.80;;
71042;SDS011;58696;52.134;5.500;2023-07-13T15:26:56;3.75;;;2.10;;
71042;SDS011;58696;52.134;5.500;2023-07-13T15:29:22;7.10;;;1.83;;
71042;SDS011;58696;52.134;5.500;2023-07-13T15:31:52;8.00;;;2.05;;
71042;SDS011;58696;52.134;5.500;2023-07-13T15:34:23;3.43;;;2.00;;
71042;SDS011;58696;52.134;5.500;2023-07-13T15:36:52;2.17;;;1.50;;
71042;SDS011;58696;52.134;5.500;2023-07-13T15:39:25;4.85;;;1.92;;
71042;SDS011;58696;52.134;5.500;2023-07-13T15:41:52;4.82;;;1.90;;
71042;SDS011;58696;52.134;5.500;2023-07-13T15:47:04;6.80;;;2.53;;
71042;SDS011;58696;52.134;5.500;2023-07-13T15:49:31;5.10;;;2.27;;
71042;SDS011;58696;52.134;5.500;2023-07-13T15:52:01;5.90;;;1.88;;
71042;SDS011;58696;52.134;5.500;2023-07-13T15:54:28;7.28;;;1.95;;
71042;SDS011;58696;52.134;5.500;2023-07-13T15:57:00;5.60;;;2.10;;
71042;SDS011;58696;52.134;5.500;2023-07-13T15:59:27;5.28;;;1.95;;